Time,TemperatureF,DewpointF,PressureIn,WindDirection,WindDirectionDegrees,WindSpeedMPH,WindSpeedGustMPH,Humidity,HourlyPrecipIn,Conditions,Clouds,dailyrainin,SoftwareType,DateUTC
2013-05-29 00:02:00,50.5,34.0,29.83,NNE,32,0.0,0.0,53,0.00,,,0.00,meteohub,2013-05-29 07:02:00,
2013-05-29 00:07:00,50.7,34.2,29.83,NNE,22,0.0,0.0,53,0.00,,,0.00,meteohub,2013-05-29 07:07:00,
2013-05-29 00:12:00,50.7,34.2,29.83,NNE,22,0.0,0.0,53,0.00,,,0.00,meteohub,2013-05-29 07:12:00,
2013-05-29 00:17:00,50.7,34.7,29.83,NNE,22,0.0,0.0,54,0.00,,,0.00,meteohub,2013-05-29 07:17:00,
2013-05-29 00:22:00,50.4,34.3,29.83,NNW,330,0.0,0.0,54,0.00,,,0.00,meteohub,2013-05-29 07:22:00,
2013-05-29 00:27:00,50.2,34.7,29.83,NNE,30,0.0,0.0,55,0.00,,,0.00,meteohub,2013-05-29 07:27:00,
2013-05-29 00:37:00,50.2,35.1,29.83,NNE,27,0.0,0.0,56,0.00,,,0.00,meteohub,2013-05-29 07:37:00,
2013-05-29 00:42:00,50.2,35.1,29.83,NNE,27,0.0,0.0,56,0.00,,,0.00,meteohub,2013-05-29 07:42:00,
2013-05-29 00:47:00,50.2,35.6,29.83,NNE,30,0.0,0.0,57,0.00,,,0.00,meteohub,2013-05-29 07:47:00,
2013-05-29 00:52:00,50.2,35.6,29.83,NNE,30,0.0,0.0,57,0.00,,,0.00,meteohub,2013-05-29 07:52:00,
2013-05-29 00:57:00,50.0,35.8,29.83,NNE,30,0.0,0.0,58,0.00,,,0.00,meteohub,2013-05-29 07:57:00,
2013-05-29 01:02:00,49.8,35.6,29.83,NNE,30,0.0,0.0,58,0.00,,,0.00,meteohub,2013-05-29 08:02:00,
2013-05-29 01:07:00,49.6,36.0,29.83,NNE,30,0.0,0.0,59,0.00,,,0.00,meteohub,2013-05-29 08:07:00,
2013-05-29 01:12:00,49.6,36.0,29.83,NNE,30,0.0,0.0,59,0.00,,,0.00,meteohub,2013-05-29 08:12:00,
2013-05-29 01:17:00,49.6,36.0,29.83,NNE,20,0.0,0.0,59,0.00,,,0.00,meteohub,2013-05-29 08:17:00,
2013-05-29 01:22:00,49.6,36.0,29.83,NNE,24,0.0,0.0,59,0.00,,,0.00,meteohub,2013-05-29 08:22:00,
2013-05-29 01:27:00,49.8,36.5,29.83,NNE,24,0.0,0.0,60,0.00,,,0.00,meteohub,2013-05-29 08:27:00,
2013-05-29 01:32:00,49.6,36.3,29.82,NNE,22,0.0,0.0,60,0.00,,,0.00,meteohub,2013-05-29 08:32:00,
2013-05-29 01:37:00,49.6,36.3,29.82,NNE,22,0.0,0.0,60,0.00,,,0.00,meteohub,2013-05-29 08:37:00,
2013-05-29 01:42:00,49.5,36.5,29.83,NNE,25,0.0,0.0,61,0.00,,,0.00,meteohub,2013-05-29 08:42:00,
2013-05-29 01:47:00,49.3,36.3,29.83,North,8,0.0,0.0,61,0.00,,,0.00,meteohub,2013-05-29 08:47:00,
2013-05-29 01:52:00,49.3,36.3,29.83,North,10,0.0,0.0,61,0.00,,,0.00,meteohub,2013-05-29 08:52:00,
2013-05-29 01:57:00,49.3,36.3,29.84,North,8,0.0,0.0,61,0.00,,,0.00,meteohub,2013-05-29 08:57:00,
2013-05-29 02:02:00,49.3,36.3,29.84,North,8,0.0,0.0,61,0.00,,,0.00,meteohub,2013-05-29 09:02:00,
2013-05-29 02:07:00,49.1,36.3,29.84,North,8,0.0,0.0,61,0.00,,,0.00,meteohub,2013-05-29 09:07:00,
2013-05-29 02:12:00,49.3,36.3,29.84,NNE,15,0.0,0.0,61,0.00,,,0.00,meteohub,2013-05-29 09:12:00,
2013-05-29 02:17:00,49.3,36.3,29.85,NNE,23,0.0,0.0,61,0.00,,,0.00,meteohub,2013-05-29 09:17:00,
2013-05-29 02:22:00,49.5,36.5,29.84,NNE,23,0.0,0.0,61,0.00,,,0.00,meteohub,2013-05-29 09:22:00,
2013-05-29 02:27:00,49.3,36.3,29.84,NNE,32,0.0,0.0,61,0.00,,,0.00,meteohub,2013-05-29 09:27:00,
2013-05-29 02:32:00,49.5,36.5,29.84,NNE,30,0.0,0.0,61,0.00,,,0.00,meteohub,2013-05-29 09:32:00,
2013-05-29 02:37:00,49.5,36.5,29.84,NNE,26,0.0,0.0,61,0.00,,,0.00,meteohub,2013-05-29 09:37:00,
2013-05-29 02:42:00,49.3,36.3,29.84,NNE,24,0.0,0.0,61,0.00,,,0.00,meteohub,2013-05-29 09:42:00,
2013-05-29 02:47:00,49.3,36.3,29.84,NNE,19,0.0,0.0,61,0.00,,,0.00,meteohub,2013-05-29 09:47:00,
2013-05-29 02:52:00,49.3,36.3,29.84,NE,42,0.0,0.0,61,0.00,,,0.00,meteohub,2013-05-29 09:52:00,
2013-05-29 02:57:00,48.9,36.1,29.84,NE,39,0.0,0.0,61,0.00,,,0.00,meteohub,2013-05-29 09:57:00,
2013-05-29 03:02:00,48.7,36.0,29.84,NE,39,0.0,0.0,61,0.00,,,0.00,meteohub,2013-05-29 10:02:00,
2013-05-29 03:07:00,48.6,36.1,29.84,NE,39,0.0,0.0,62,0.00,,,0.00,meteohub,2013-05-29 10:07:00,
2013-05-29 03:12:00,48.4,36.0,29.84,NE,36,0.0,0.0,62,0.00,,,0.00,meteohub,2013-05-29 10:12:00,
2013-05-29 03:17:00,48.6,36.1,29.84,NNE,32,0.0,0.0,62,0.00,,,0.00,meteohub,2013-05-29 10:17:00,
2013-05-29 03:22:00,48.9,36.5,29.84,NNE,23,0.0,0.0,62,0.00,,,0.00,meteohub,2013-05-29 10:22:00,
2013-05-29 03:27:00,48.7,36.3,29.84,NNE,23,0.0,0.0,62,0.00,,,0.00,meteohub,2013-05-29 10:27:00,
2013-05-29 03:32:00,48.6,36.5,29.84,NNE,23,0.0,0.0,63,0.00,,,0.00,meteohub,2013-05-29 10:32:00,
2013-05-29 03:37:00,48.4,36.3,29.84,NNE,22,0.0,0.0,63,0.00,,,0.00,meteohub,2013-05-29 10:37:00,
2013-05-29 03:42:00,47.8,36.3,29.83,NNE,23,0.0,0.0,64,0.00,,,0.00,meteohub,2013-05-29 10:42:00,
2013-05-29 03:47:00,48.0,36.5,29.83,ESE,118,0.0,0.0,64,0.00,,,0.00,meteohub,2013-05-29 10:47:00,
2013-05-29 03:52:00,48.0,36.5,29.83,ESE,120,0.0,0.0,64,0.00,,,0.00,meteohub,2013-05-29 10:52:00,
2013-05-29 03:57:00,48.2,36.7,29.83,ESE,120,0.0,0.0,64,0.00,,,0.00,meteohub,2013-05-29 10:57:00,
2013-05-29 04:02:00,48.2,36.7,29.83,ESE,120,0.0,0.0,64,0.00,,,0.00,meteohub,2013-05-29 11:02:00,
2013-05-29 04:07:00,48.0,36.5,29.83,ESE,120,0.0,0.0,64,0.00,,,0.00,meteohub,2013-05-29 11:07:00,
2013-05-29 04:12:00,48.0,36.5,29.82,SE,133,0.0,0.0,64,0.00,,,0.00,meteohub,2013-05-29 11:12:00,
2013-05-29 04:17:00,48.4,36.3,29.82,West,264,0.0,0.0,63,0.00,,,0.00,meteohub,2013-05-29 11:17:00,
2013-05-29 04:22:00,48.4,36.3,29.82,West,264,0.0,0.0,63,0.00,,,0.00,meteohub,2013-05-29 11:22:00,
2013-05-29 04:27:00,48.7,36.7,29.82,West,264,0.0,0.0,63,0.00,,,0.00,meteohub,2013-05-29 11:27:00,
2013-05-29 04:32:00,48.9,36.1,29.81,West,266,0.0,0.0,61,0.00,,,0.00,meteohub,2013-05-29 11:32:00,
2013-05-29 04:37:00,48.9,36.5,29.82,West,264,0.0,0.0,62,0.00,,,0.00,meteohub,2013-05-29 11:37:00,
2013-05-29 04:42:00,49.1,36.3,29.81,SE,142,0.0,0.0,61,0.00,,,0.00,meteohub,2013-05-29 11:42:00,
2013-05-29 04:47:00,49.8,36.1,29.81,ESE,117,0.0,0.0,59,0.00,,,0.00,meteohub,2013-05-29 11:47:00,
2013-05-29 04:52:00,50.2,35.6,29.81,ESE,117,0.0,0.0,57,0.00,,,0.00,meteohub,2013-05-29 11:52:00,
2013-05-29 04:57:00,50.4,35.2,29.81,SE,136,0.0,0.0,56,0.00,,,0.00,meteohub,2013-05-29 11:57:00,
2013-05-29 05:02:00,50.5,35.4,29.81,West,264,0.0,0.0,56,0.00,,,0.00,meteohub,2013-05-29 12:02:00,
2013-05-29 05:07:00,50.7,35.6,29.82,West,264,0.0,0.0,56,0.00,,,0.00,meteohub,2013-05-29 12:07:00,
2013-05-29 05:12:00,51.1,35.4,29.82,West,263,0.0,0.0,55,0.00,,,0.00,meteohub,2013-05-29 12:12:00,
2013-05-29 05:17:00,51.3,35.6,29.82,West,263,0.0,0.0,55,0.00,,,0.00,meteohub,2013-05-29 12:17:00,
2013-05-29 05:22:00,51.3,35.6,29.82,West,264,0.0,0.0,55,0.00,,,0.00,meteohub,2013-05-29 12:22:00,
2013-05-29 05:27:00,51.6,35.6,29.82,West,263,0.0,0.0,54,0.00,,,0.00,meteohub,2013-05-29 12:27:00,
2013-05-29 05:32:00,51.8,34.2,29.82,West,270,0.0,0.0,51,0.00,,,0.00,meteohub,2013-05-29 12:32:00,
2013-05-29 05:37:00,52.0,33.4,29.82,West,269,0.0,0.0,49,0.00,,,0.00,meteohub,2013-05-29 12:37:00,
2013-05-29 05:42:00,52.5,34.0,29.83,West,269,0.0,0.0,49,0.00,,,0.00,meteohub,2013-05-29 12:42:00,
2013-05-29 05:47:00,53.2,33.1,29.83,West,277,0.0,0.0,46,0.00,,,0.00,meteohub,2013-05-29 12:47:00,
2013-05-29 05:52:00,53.4,32.5,29.83,West,277,0.0,0.0,45,0.00,,,0.00,meteohub,2013-05-29 12:52:00,
2013-05-29 05:57:00,53.8,29.5,29.83,SW,221,0.0,0.0,39,0.00,,,0.00,meteohub,2013-05-29 12:57:00,
2013-05-29 06:02:00,53.8,29.5,29.83,South,186,0.0,0.0,39,0.00,,,0.00,meteohub,2013-05-29 13:02:00,
2013-05-29 06:07:00,53.8,31.3,29.83,NE,46,0.0,0.0,42,0.00,,,0.00,meteohub,2013-05-29 13:07:00,
2013-05-29 06:12:00,53.6,32.2,29.83,East,96,0.0,0.0,44,0.00,,,0.00,meteohub,2013-05-29 13:12:00,
2013-05-29 06:17:00,54.0,32.0,29.83,West,264,0.0,0.0,43,0.00,,,0.00,meteohub,2013-05-29 13:17:00,
2013-05-29 06:22:00,54.1,30.9,29.83,NNE,23,2.0,2.0,41,0.00,,,0.00,meteohub,2013-05-29 13:22:00,
2013-05-29 06:27:00,54.7,30.9,29.83,NNE,29,2.0,2.0,40,0.00,,,0.00,meteohub,2013-05-29 13:27:00,
2013-05-29 06:32:00,55.4,30.9,29.83,NE,39,0.0,4.0,39,0.00,,,0.00,meteohub,2013-05-29 13:32:00,
2013-05-29 06:37:00,55.8,33.1,29.83,NNE,30,0.0,4.0,42,0.00,,,0.00,meteohub,2013-05-29 13:37:00,
2013-05-29 06:42:00,56.1,34.0,29.83,NE,53,0.0,4.0,43,0.00,,,0.00,meteohub,2013-05-29 13:42:00,
2013-05-29 06:47:00,55.9,33.8,29.83,NE,41,0.0,0.0,43,0.00,,,0.00,meteohub,2013-05-29 13:47:00,
2013-05-29 06:52:00,55.9,33.8,29.83,NE,34,0.0,0.0,43,0.00,,,0.00,meteohub,2013-05-29 13:52:00,
2013-05-29 06:57:00,55.9,32.5,29.84,NE,36,0.0,0.0,41,0.00,,,0.00,meteohub,2013-05-29 13:57:00,
2013-05-29 07:02:00,56.1,32.7,29.84,NE,45,0.0,0.0,41,0.00,,,0.00,meteohub,2013-05-29 14:02:00,
2013-05-29 07:07:00,56.5,32.4,29.84,NNE,25,0.0,0.0,40,0.00,,,0.00,meteohub,2013-05-29 14:07:00,
2013-05-29 07:12:00,56.7,33.3,29.84,NNE,30,0.0,0.0,41,0.00,,,0.00,meteohub,2013-05-29 14:12:00,
2013-05-29 07:17:00,57.0,31.6,29.84,ENE,57,0.0,0.0,38,0.00,,,0.00,meteohub,2013-05-29 14:17:00,
2013-05-29 07:22:00,57.0,32.4,29.84,NE,37,2.0,4.0,39,0.00,,,0.00,meteohub,2013-05-29 14:22:00,
2013-05-29 07:27:00,57.0,33.6,29.84,NE,48,0.0,4.0,41,0.00,,,0.00,meteohub,2013-05-29 14:27:00,
2013-05-29 07:32:00,57.4,32.5,29.84,NE,46,3.0,4.0,39,0.00,,,0.00,meteohub,2013-05-29 14:32:00,
2013-05-29 07:37:00,57.6,32.2,29.84,NE,39,0.0,4.0,38,0.00,,,0.00,meteohub,2013-05-29 14:37:00,
2013-05-29 07:42:00,57.9,30.4,29.84,NNW,340,1.0,4.0,35,0.00,,,0.00,meteohub,2013-05-29 14:42:00,
2013-05-29 07:47:00,58.3,30.7,29.84,NE,46,4.0,5.0,35,0.00,,,0.00,meteohub,2013-05-29 14:47:00,
2013-05-29 07:52:00,58.5,30.9,29.84,NE,43,2.0,7.0,35,0.00,,,0.00,meteohub,2013-05-29 14:52:00,
2013-05-29 07:57:00,59.0,31.5,29.84,NE,36,1.0,7.0,35,0.00,,,0.00,meteohub,2013-05-29 14:57:00,
2013-05-29 08:02:00,59.4,27.9,29.84,North,1,4.0,7.0,30,0.00,,,0.00,meteohub,2013-05-29 15:02:00,
2013-05-29 08:07:00,59.7,30.6,29.84,NNW,330,2.0,8.0,33,0.00,,,0.00,meteohub,2013-05-29 15:07:00,
2013-05-29 08:12:00,60.1,30.2,29.84,NNE,29,5.0,8.0,32,0.00,,,0.00,meteohub,2013-05-29 15:12:00,
2013-05-29 08:17:00,60.6,28.2,29.85,ENE,60,1.0,8.0,29,0.00,,,0.00,meteohub,2013-05-29 15:17:00,
2013-05-29 08:22:00,61.3,28.8,29.84,NE,43,1.0,6.0,29,0.00,,,0.00,meteohub,2013-05-29 15:22:00,
2013-05-29 08:27:00,61.7,26.4,29.85,NE,53,9.0,9.0,26,0.00,,,0.00,meteohub,2013-05-29 15:27:00,
2013-05-29 08:32:00,62.1,25.9,29.85,WNW,295,4.0,9.0,25,0.00,,,0.00,meteohub,2013-05-29 15:32:00,
2013-05-29 08:37:00,62.4,27.1,29.85,NE,43,1.0,9.0,26,0.00,,,0.00,meteohub,2013-05-29 15:37:00,
2013-05-29 08:42:00,63.1,27.7,29.85,NE,44,2.0,9.0,26,0.00,,,0.00,meteohub,2013-05-29 15:42:00,
2013-05-29 08:47:00,64.2,27.7,29.85,East,93,4.0,9.0,25,0.00,,,0.00,meteohub,2013-05-29 15:47:00,
2013-05-29 08:52:00,64.4,27.9,29.85,NNE,18,2.0,5.0,25,0.00,,,0.00,meteohub,2013-05-29 15:52:00,
2013-05-29 08:57:00,64.8,26.1,29.85,NNE,12,4.0,5.0,23,0.00,,,0.00,meteohub,2013-05-29 15:57:00,
2013-05-29 09:02:00,65.1,27.5,29.86,NE,44,0.0,6.0,24,0.00,,,0.00,meteohub,2013-05-29 16:02:00,
2013-05-29 09:07:00,66.2,28.4,29.85,NE,50,1.0,6.0,24,0.00,,,0.00,meteohub,2013-05-29 16:07:00,
2013-05-29 09:12:00,66.7,28.8,29.85,NE,47,5.0,6.0,24,0.00,,,0.00,meteohub,2013-05-29 16:12:00,
2013-05-29 09:17:00,66.7,28.8,29.86,NE,55,2.0,5.0,24,0.00,,,0.00,meteohub,2013-05-29 16:17:00,
2013-05-29 09:22:00,66.4,26.4,29.86,ENE,57,5.0,5.0,22,0.00,,,0.00,meteohub,2013-05-29 16:22:00,
2013-05-29 09:27:00,66.0,29.1,29.86,NNE,27,5.0,9.0,25,0.00,,,0.00,meteohub,2013-05-29 16:27:00,
2013-05-29 09:32:00,66.6,29.7,29.86,WNW,294,5.0,9.0,25,0.00,,,0.00,meteohub,2013-05-29 16:32:00,
2013-05-29 09:37:00,66.7,28.8,29.86,NNE,18,2.0,8.0,24,0.00,,,0.00,meteohub,2013-05-29 16:37:00,
2013-05-29 09:42:00,66.9,28.9,29.86,WNW,283,0.0,7.0,24,0.00,,,0.00,meteohub,2013-05-29 16:42:00,
2013-05-29 09:47:00,67.3,29.3,29.86,NNE,31,4.0,7.0,24,0.00,,,0.00,meteohub,2013-05-29 16:47:00,
2013-05-29 09:52:00,66.6,28.6,29.86,NNW,339,2.0,7.0,24,0.00,,,0.00,meteohub,2013-05-29 16:52:00,
2013-05-29 09:57:00,66.6,28.6,29.86,East,84,5.0,7.0,24,0.00,,,0.00,meteohub,2013-05-29 16:57:00,
2013-05-29 10:02:00,66.6,29.7,29.86,NNW,345,0.0,7.0,25,0.00,,,0.00,meteohub,2013-05-29 17:02:00,
2013-05-29 10:07:00,66.4,30.4,29.86,East,101,2.0,7.0,26,0.00,,,0.00,meteohub,2013-05-29 17:07:00,
2013-05-29 10:12:00,66.7,32.5,29.86,West,266,2.0,9.0,28,0.00,,,0.00,meteohub,2013-05-29 17:12:00,
2013-05-29 10:17:00,66.4,29.5,29.86,NE,46,1.0,9.0,25,0.00,,,0.00,meteohub,2013-05-29 17:17:00,
2013-05-29 10:22:00,66.9,30.9,29.86,NNW,340,4.0,9.0,26,0.00,,,0.00,meteohub,2013-05-29 17:22:00,
2013-05-29 10:27:00,66.7,31.6,29.86,NE,34,4.0,8.0,27,0.00,,,0.00,meteohub,2013-05-29 17:27:00,
2013-05-29 10:32:00,67.3,32.2,29.86,West,269,1.0,8.0,27,0.00,,,0.00,meteohub,2013-05-29 17:32:00,
2013-05-29 10:37:00,66.7,32.5,29.86,WNW,284,3.0,8.0,28,0.00,,,0.00,meteohub,2013-05-29 17:37:00,
2013-05-29 10:42:00,67.1,33.8,29.86,West,273,1.0,8.0,29,0.00,,,0.00,meteohub,2013-05-29 17:42:00,
2013-05-29 10:47:00,68.2,33.8,29.86,NNW,330,4.0,8.0,28,0.00,,,0.00,meteohub,2013-05-29 17:47:00,
2013-05-29 10:52:00,68.5,34.2,29.86,NNE,24,6.0,8.0,28,0.00,,,0.00,meteohub,2013-05-29 17:52:00,
2013-05-29 10:57:00,68.5,34.2,29.85,NNW,336,4.0,8.0,28,0.00,,,0.00,meteohub,2013-05-29 17:57:00,
2013-05-29 11:02:00,68.7,33.4,29.86,North,3,6.0,8.0,27,0.00,,,0.00,meteohub,2013-05-29 18:02:00,
2013-05-29 11:07:00,68.5,35.1,29.86,West,278,3.0,7.0,29,0.00,,,0.00,meteohub,2013-05-29 18:07:00,
2013-05-29 11:12:00,69.1,35.4,29.85,West,280,4.0,8.0,29,0.00,,,0.00,meteohub,2013-05-29 18:12:00,
2013-05-29 11:17:00,69.6,36.9,29.85,ESE,104,0.0,8.0,30,0.00,,,0.00,meteohub,2013-05-29 18:17:00,
2013-05-29 11:22:00,69.6,35.1,29.85,West,271,5.0,8.0,28,0.00,,,0.00,meteohub,2013-05-29 18:22:00,
2013-05-29 11:27:00,69.6,36.0,29.85,ENE,62,2.0,8.0,29,0.00,,,0.00,meteohub,2013-05-29 18:27:00,
2013-05-29 11:32:00,70.3,36.5,29.84,NW,316,2.0,8.0,29,0.00,,,0.00,meteohub,2013-05-29 18:32:00,
2013-05-29 11:37:00,71.1,38.1,29.85,WNW,284,3.0,8.0,30,0.00,,,0.00,meteohub,2013-05-29 18:37:00,
2013-05-29 11:42:00,72.0,39.7,29.84,SSE,156,1.0,8.0,31,0.00,,,0.00,meteohub,2013-05-29 18:42:00,
2013-05-29 11:47:00,72.7,41.2,29.84,West,266,0.0,8.0,32,0.00,,,0.00,meteohub,2013-05-29 18:47:00,
2013-05-29 11:52:00,72.1,39.0,29.85,WNW,283,6.0,12.0,30,0.00,,,0.00,meteohub,2013-05-29 18:52:00,
2013-05-29 11:57:00,72.1,42.3,29.84,North,354,4.0,12.0,34,0.00,,,0.00,meteohub,2013-05-29 18:57:00,
2013-05-29 12:02:00,73.0,41.4,29.84,East,99,5.0,12.0,32,0.00,,,0.00,meteohub,2013-05-29 19:02:00,
2013-05-29 12:07:00,73.0,42.3,29.84,East,85,1.0,12.0,33,0.00,,,0.00,meteohub,2013-05-29 19:07:00,
2013-05-29 12:12:00,73.0,43.7,29.84,SSW,208,1.0,11.0,35,0.00,,,0.00,meteohub,2013-05-29 19:12:00,
2013-05-29 12:17:00,73.9,43.9,29.84,South,191,2.0,11.0,34,0.00,,,0.00,meteohub,2013-05-29 19:17:00,
2013-05-29 12:22:00,73.0,43.7,29.84,SW,232,5.0,15.0,35,0.00,,,0.00,meteohub,2013-05-29 19:22:00,
2013-05-29 12:27:00,72.3,43.2,29.84,ENE,68,3.0,15.0,35,0.00,,,0.00,meteohub,2013-05-29 19:27:00,
2013-05-29 12:32:00,72.9,44.4,29.84,NE,41,4.0,15.0,36,0.00,,,0.00,meteohub,2013-05-29 19:32:00,
2013-05-29 12:37:00,73.4,45.5,29.83,NNW,332,4.0,12.0,37,0.00,,,0.00,meteohub,2013-05-29 19:37:00,
2013-05-29 12:42:00,73.9,45.3,29.83,West,276,2.0,12.0,36,0.00,,,0.00,meteohub,2013-05-29 19:42:00,
2013-05-29 12:47:00,73.8,45.1,29.83,West,266,3.0,11.0,36,0.00,,,0.00,meteohub,2013-05-29 19:47:00,
2013-05-29 12:52:00,73.9,44.6,29.83,West,271,6.0,11.0,35,0.00,,,0.00,meteohub,2013-05-29 19:52:00,
2013-05-29 12:57:00,73.8,43.7,29.83,NW,314,5.0,11.0,34,0.00,,,0.00,meteohub,2013-05-29 19:57:00,
2013-05-29 13:02:00,73.9,45.3,29.83,NW,311,7.0,17.0,36,0.00,,,0.00,meteohub,2013-05-29 20:02:00,
2013-05-29 13:07:00,73.9,45.3,29.83,East,81,3.0,17.0,36,0.00,,,0.00,meteohub,2013-05-29 20:07:00,
2013-05-29 13:12:00,73.2,44.6,29.82,ENE,72,2.0,15.0,36,0.00,,,0.00,meteohub,2013-05-29 20:12:00,
2013-05-29 13:17:00,73.6,45.0,29.82,ENE,59,4.0,15.0,36,0.00,,,0.00,meteohub,2013-05-29 20:17:00,
2013-05-29 13:22:00,73.6,43.5,29.82,NE,46,6.0,15.0,34,0.00,,,0.00,meteohub,2013-05-29 20:22:00,
2013-05-29 13:27:00,72.9,44.4,29.82,ENE,68,2.0,15.0,36,0.00,,,0.00,meteohub,2013-05-29 20:27:00,
2013-05-29 13:32:00,73.4,46.2,29.82,NNE,30,3.0,15.0,38,0.00,,,0.00,meteohub,2013-05-29 20:32:00,
2013-05-29 13:37:00,74.1,44.8,29.82,ENE,64,4.0,13.0,35,0.00,,,0.00,meteohub,2013-05-29 20:37:00,
2013-05-29 13:42:00,73.6,44.2,29.81,North,6,3.0,8.0,35,0.00,,,0.00,meteohub,2013-05-29 20:42:00,
2013-05-29 13:47:00,73.8,45.1,29.81,NW,311,3.0,9.0,36,0.00,,,0.00,meteohub,2013-05-29 20:47:00,
2013-05-29 13:52:00,73.0,43.0,29.81,East,98,5.0,14.0,34,0.00,,,0.00,meteohub,2013-05-29 20:52:00,
2013-05-29 13:57:00,73.2,42.4,29.81,West,279,4.0,14.0,33,0.00,,,0.00,meteohub,2013-05-29 20:57:00,
2013-05-29 14:02:00,73.4,40.1,29.81,NW,323,5.0,14.0,30,0.00,,,0.00,meteohub,2013-05-29 21:02:00,
2013-05-29 14:07:00,72.9,38.7,29.81,West,260,1.0,12.0,29,0.00,,,0.00,meteohub,2013-05-29 21:07:00,
2013-05-29 14:12:00,72.7,37.8,29.81,SSW,208,2.0,12.0,28,0.00,,,0.00,meteohub,2013-05-29 21:12:00,
2013-05-29 14:17:00,72.7,37.8,29.81,ENE,63,3.0,12.0,28,0.00,,,0.00,meteohub,2013-05-29 21:17:00,
2013-05-29 14:22:00,73.2,39.0,29.81,ENE,77,4.0,12.0,29,0.00,,,0.00,meteohub,2013-05-29 21:22:00,
2013-05-29 14:27:00,73.6,37.6,29.81,East,79,5.0,9.0,27,0.00,,,0.00,meteohub,2013-05-29 21:27:00,
2013-05-29 14:32:00,73.9,31.5,29.81,SSW,210,3.0,10.0,21,0.00,,,0.00,meteohub,2013-05-29 21:32:00,
2013-05-29 14:37:00,73.6,32.4,29.81,ENE,60,1.0,10.0,22,0.00,,,0.00,meteohub,2013-05-29 21:37:00,
2013-05-29 14:42:00,73.9,31.5,29.81,SE,128,3.0,10.0,21,0.00,,,0.00,meteohub,2013-05-29 21:42:00,
2013-05-29 14:47:00,74.8,32.4,29.80,NE,37,3.0,10.0,21,0.00,,,0.00,meteohub,2013-05-29 21:47:00,
2013-05-29 14:52:00,75.6,31.6,29.80,ESE,117,1.0,7.0,20,0.00,,,0.00,meteohub,2013-05-29 21:52:00,
2013-05-29 14:57:00,75.4,31.5,29.80,South,191,0.0,7.0,20,0.00,,,0.00,meteohub,2013-05-29 21:57:00,
2013-05-29 15:02:00,75.6,30.4,29.80,SE,134,7.0,7.0,19,0.00,,,0.00,meteohub,2013-05-29 22:02:00,
2013-05-29 15:07:00,75.4,28.9,29.80,SW,225,5.0,8.0,18,0.00,,,0.00,meteohub,2013-05-29 22:07:00,
2013-05-29 15:12:00,75.4,24.4,29.79,North,352,7.0,8.0,15,0.00,,,0.00,meteohub,2013-05-29 22:12:00,
2013-05-29 15:17:00,74.8,32.4,29.80,NNE,20,2.0,9.0,21,0.00,,,0.00,meteohub,2013-05-29 22:17:00,
2013-05-29 15:22:00,74.1,45.5,29.80,ESE,105,1.0,9.0,36,0.00,,,0.00,meteohub,2013-05-29 22:22:00,
2013-05-29 15:27:00,73.0,45.9,29.79,SSW,200,1.0,9.0,38,0.00,,,0.00,meteohub,2013-05-29 22:27:00,
2013-05-29 15:32:00,72.7,46.2,29.79,SE,133,4.0,6.0,39,0.00,,,0.00,meteohub,2013-05-29 22:32:00,
2013-05-29 15:37:00,72.9,45.1,29.79,West,280,3.0,5.0,37,0.00,,,0.00,meteohub,2013-05-29 22:37:00,
2013-05-29 15:42:00,71.1,44.8,29.78,ESE,103,4.0,5.0,39,0.00,,,0.00,meteohub,2013-05-29 22:42:00,
2013-05-29 15:47:00,70.7,45.1,29.78,SE,124,0.0,7.0,40,0.00,,,0.00,meteohub,2013-05-29 22:47:00,
2013-05-29 15:52:00,70.7,45.9,29.78,SE,132,1.0,7.0,41,0.00,,,0.00,meteohub,2013-05-29 22:52:00,
2013-05-29 15:57:00,70.9,46.6,29.78,SE,146,4.0,7.0,42,0.00,,,0.00,meteohub,2013-05-29 22:57:00,
2013-05-29 16:02:00,70.5,45.0,29.78,North,8,1.0,9.0,40,0.00,,,0.00,meteohub,2013-05-29 23:02:00,
2013-05-29 16:07:00,71.2,45.0,29.78,NE,45,3.0,9.0,39,0.00,,,0.00,meteohub,2013-05-29 23:07:00,
2013-05-29 16:12:00,71.1,45.5,29.78,SSW,203,1.0,9.0,40,0.00,,,0.00,meteohub,2013-05-29 23:12:00,
2013-05-29 16:17:00,70.3,45.0,29.78,ESE,121,3.0,10.0,40,0.00,,,0.00,meteohub,2013-05-29 23:17:00,
2013-05-29 16:22:00,70.0,43.9,29.78,ESE,112,4.0,10.0,39,0.00,,,0.00,meteohub,2013-05-29 23:22:00,
2013-05-29 16:27:00,69.1,45.7,29.78,ESE,121,7.0,10.0,43,0.00,,,0.00,meteohub,2013-05-29 23:27:00,
2013-05-29 16:37:00,68.4,47.3,29.78,East,99,7.0,13.0,47,0.00,,,0.00,meteohub,2013-05-29 23:37:00,
2013-05-29 16:42:00,67.8,48.0,29.78,East,99,2.0,13.0,49,0.00,,,0.00,meteohub,2013-05-29 23:42:00,
2013-05-29 16:47:00,67.6,48.9,29.77,NNW,336,2.0,10.0,51,0.00,,,0.00,meteohub,2013-05-29 23:47:00,
2013-05-29 16:52:00,67.5,49.8,29.77,SSW,198,3.0,10.0,53,0.00,,,0.00,meteohub,2013-05-29 23:52:00,
2013-05-29 16:57:00,67.3,50.5,29.78,ESE,114,1.0,12.0,55,0.00,,,0.00,meteohub,2013-05-29 23:57:00,
2013-05-29 17:02:00,66.9,50.2,29.77,SE,142,6.0,12.0,55,0.00,,,0.00,meteohub,2013-05-30 00:02:00,
2013-05-29 17:07:00,66.9,50.7,29.77,SSW,198,0.0,12.0,56,0.00,,,0.00,meteohub,2013-05-30 00:07:00,
2013-05-29 17:12:00,67.3,51.1,29.77,ESE,123,2.0,9.0,56,0.00,,,0.00,meteohub,2013-05-30 00:12:00,
2013-05-29 17:17:00,67.3,51.1,29.77,SSE,160,0.0,10.0,56,0.00,,,0.00,meteohub,2013-05-30 00:17:00,
2013-05-29 17:22:00,67.3,51.4,29.77,SSW,201,1.0,10.0,57,0.00,,,0.00,meteohub,2013-05-30 00:22:00,
2013-05-29 17:27:00,66.9,52.2,29.76,ESE,108,5.0,10.0,59,0.00,,,0.00,meteohub,2013-05-30 00:27:00,
2013-05-29 17:32:00,66.6,52.2,29.76,East,91,3.0,9.0,60,0.00,,,0.00,meteohub,2013-05-30 00:32:00,
2013-05-29 17:37:00,66.0,52.2,29.76,South,174,4.0,12.0,61,0.00,,,0.00,meteohub,2013-05-30 00:37:00,
2013-05-29 17:42:00,65.8,52.0,29.75,South,179,2.0,12.0,61,0.00,,,0.00,meteohub,2013-05-30 00:42:00,
2013-05-29 17:47:00,65.5,52.2,29.76,NE,39,2.0,12.0,62,0.00,,,0.00,meteohub,2013-05-30 00:47:00,
2013-05-29 17:52:00,65.3,52.3,29.75,SE,138,3.0,11.0,63,0.00,,,0.00,meteohub,2013-05-30 00:52:00,
2013-05-29 17:57:00,64.9,52.0,29.76,SW,224,4.0,11.0,63,0.00,,,0.00,meteohub,2013-05-30 00:57:00,
2013-05-29 18:02:00,64.8,52.3,29.75,SSE,153,5.0,12.0,64,0.00,,,0.00,meteohub,2013-05-30 01:02:00,
2013-05-29 18:07:00,64.2,51.8,29.75,SSE,148,5.0,12.0,64,0.00,,,0.00,meteohub,2013-05-30 01:07:00,
2013-05-29 18:12:00,64.2,51.8,29.75,WNW,297,1.0,11.0,64,0.00,,,0.00,meteohub,2013-05-30 01:12:00,
2013-05-29 18:17:00,64.0,52.0,29.75,SE,146,3.0,11.0,65,0.00,,,0.00,meteohub,2013-05-30 01:17:00,
2013-05-29 18:22:00,63.5,51.4,29.75,ENE,67,5.0,11.0,65,0.00,,,0.00,meteohub,2013-05-30 01:22:00,
2013-05-29 18:27:00,62.6,51.1,29.75,SE,131,2.0,11.0,66,0.00,,,0.00,meteohub,2013-05-30 01:27:00,
2013-05-29 18:32:00,62.1,50.9,29.75,ESE,109,8.0,13.0,67,0.00,,,0.00,meteohub,2013-05-30 01:32:00,
2013-05-29 18:37:00,61.7,51.1,29.75,SW,218,1.0,14.0,68,0.00,,,0.00,meteohub,2013-05-30 01:37:00,
2013-05-29 18:42:00,61.3,50.7,29.75,SSE,158,5.0,14.0,68,0.00,,,0.00,meteohub,2013-05-30 01:42:00,
2013-05-29 18:47:00,61.2,50.2,29.75,SSE,163,7.0,14.0,67,0.00,,,0.00,meteohub,2013-05-30 01:47:00,
2013-05-29 18:52:00,60.8,49.8,29.75,ESE,117,2.0,11.0,67,0.00,,,0.00,meteohub,2013-05-30 01:52:00,
2013-05-29 18:57:00,60.4,49.1,29.75,East,80,2.0,11.0,66,0.00,,,0.00,meteohub,2013-05-30 01:57:00,
2013-05-29 19:02:00,60.1,48.2,29.75,SE,138,6.0,11.0,65,0.00,,,0.00,meteohub,2013-05-30 02:02:00,
2013-05-29 19:07:00,59.7,47.5,29.75,South,190,7.0,11.0,64,0.00,,,0.00,meteohub,2013-05-30 02:07:00,
2013-05-29 19:12:00,59.5,47.3,29.76,SE,131,2.0,11.0,64,0.00,,,0.00,meteohub,2013-05-30 02:12:00,
2013-05-29 19:17:00,59.4,47.7,29.76,SSE,148,1.0,10.0,65,0.00,,,0.00,meteohub,2013-05-30 02:17:00,
2013-05-29 19:22:00,59.2,47.8,29.75,SE,133,6.0,10.0,66,0.00,,,0.00,meteohub,2013-05-30 02:22:00,
2013-05-29 19:27:00,59.0,48.0,29.75,SSE,158,2.0,10.0,67,0.00,,,0.00,meteohub,2013-05-30 02:27:00,
2013-05-29 19:32:00,58.8,47.8,29.75,East,101,4.0,10.0,67,0.00,,,0.00,meteohub,2013-05-30 02:32:00,
2013-05-29 19:37:00,59.2,48.2,29.75,ESE,103,6.0,13.0,67,0.00,,,0.00,meteohub,2013-05-30 02:37:00,
2013-05-29 19:42:00,58.8,47.8,29.75,SSW,198,2.0,13.0,67,0.00,,,0.00,meteohub,2013-05-30 02:42:00,
2013-05-29 19:47:00,58.6,48.2,29.75,SSE,158,5.0,13.0,68,0.00,,,0.00,meteohub,2013-05-30 02:47:00,
2013-05-29 19:52:00,58.8,47.8,29.75,East,96,5.0,10.0,67,0.00,,,0.00,meteohub,2013-05-30 02:52:00,
2013-05-29 19:57:00,59.2,47.8,29.75,SE,129,2.0,13.0,66,0.00,,,0.00,meteohub,2013-05-30 02:57:00,
2013-05-29 20:02:00,59.2,47.8,29.75,SE,134,3.0,13.0,66,0.00,,,0.00,meteohub,2013-05-30 03:02:00,
2013-05-29 20:07:00,59.2,46.9,29.75,SE,135,3.0,13.0,64,0.00,,,0.00,meteohub,2013-05-30 03:07:00,
2013-05-29 20:12:00,59.2,46.9,29.75,East,86,10.0,10.0,64,0.00,,,0.00,meteohub,2013-05-30 03:12:00,
2013-05-29 20:17:00,59.4,46.8,29.75,SE,144,8.0,11.0,63,0.00,,,0.00,meteohub,2013-05-30 03:17:00,
2013-05-29 20:22:00,59.4,45.9,29.75,SE,143,4.0,11.0,61,0.00,,,0.00,meteohub,2013-05-30 03:22:00,
2013-05-29 20:27:00,59.4,45.9,29.75,ENE,78,2.0,11.0,61,0.00,,,0.00,meteohub,2013-05-30 03:27:00,
2013-05-29 20:32:00,59.5,46.0,29.75,SSW,212,6.0,11.0,61,0.00,,,0.00,meteohub,2013-05-30 03:32:00,
2013-05-29 20:37:00,59.5,45.7,29.76,ESE,120,5.0,11.0,60,0.00,,,0.00,meteohub,2013-05-30 03:37:00,
2013-05-29 20:42:00,59.5,45.7,29.76,SE,133,1.0,9.0,60,0.00,,,0.00,meteohub,2013-05-30 03:42:00,
2013-05-29 20:47:00,59.5,45.7,29.76,East,93,4.0,9.0,60,0.00,,,0.00,meteohub,2013-05-30 03:47:00,
2013-05-29 20:52:00,59.7,45.9,29.76,East,98,3.0,12.0,60,0.00,,,0.00,meteohub,2013-05-30 03:52:00,
2013-05-29 20:57:00,59.7,45.9,29.76,SE,126,3.0,12.0,60,0.00,,,0.00,meteohub,2013-05-30 03:57:00,
2013-05-29 21:02:00,59.5,45.7,29.77,West,278,1.0,12.0,60,0.00,,,0.00,meteohub,2013-05-30 04:02:00,
2013-05-29 21:07:00,59.5,45.7,29.77,ESE,120,3.0,11.0,60,0.00,,,0.00,meteohub,2013-05-30 04:07:00,
2013-05-29 21:12:00,59.5,45.7,29.77,ESE,113,3.0,12.0,60,0.00,,,0.00,meteohub,2013-05-30 04:12:00,
2013-05-29 21:17:00,59.5,45.7,29.77,WNW,293,3.0,12.0,60,0.00,,,0.00,meteohub,2013-05-30 04:17:00,
2013-05-29 21:22:00,60.1,45.3,29.77,East,100,1.0,12.0,58,0.00,,,0.00,meteohub,2013-05-30 04:22:00,
2013-05-29 21:27:00,60.1,45.3,29.77,SSE,161,4.0,11.0,58,0.00,,,0.00,meteohub,2013-05-30 04:27:00,
2013-05-29 21:32:00,59.9,45.1,29.77,SE,134,2.0,11.0,58,0.00,,,0.00,meteohub,2013-05-30 04:32:00,
2013-05-29 21:37:00,59.7,45.0,29.77,South,173,1.0,9.0,58,0.00,,,0.00,meteohub,2013-05-30 04:37:00,
2013-05-29 21:42:00,59.4,45.0,29.77,SW,221,2.0,8.0,59,0.00,,,0.00,meteohub,2013-05-30 04:42:00,
2013-05-29 21:47:00,59.2,44.8,29.78,SSW,204,2.0,8.0,59,0.00,,,0.00,meteohub,2013-05-30 04:47:00,
2013-05-29 21:52:00,59.2,44.8,29.78,East,93,2.0,9.0,59,0.00,,,0.00,meteohub,2013-05-30 04:52:00,
2013-05-29 21:57:00,59.0,44.8,29.78,SSW,211,2.0,9.0,59,0.00,,,0.00,meteohub,2013-05-30 04:57:00,
2013-05-29 22:02:00,59.0,44.8,29.78,ESE,102,2.0,9.0,59,0.00,,,0.00,meteohub,2013-05-30 05:02:00,
2013-05-29 22:07:00,58.8,45.0,29.78,SE,127,2.0,8.0,60,0.00,,,0.00,meteohub,2013-05-30 05:07:00,
2013-05-29 22:12:00,58.6,44.8,29.77,SSE,165,2.0,8.0,60,0.00,,,0.00,meteohub,2013-05-30 05:12:00,
2013-05-29 22:17:00,58.6,44.8,29.78,South,170,1.0,7.0,60,0.00,,,0.00,meteohub,2013-05-30 05:17:00,
2013-05-29 22:22:00,58.6,44.8,29.78,SSE,166,2.0,11.0,60,0.00,,,0.00,meteohub,2013-05-30 05:22:00,
2013-05-29 22:27:00,58.8,44.6,29.79,SE,126,4.0,11.0,59,0.00,,,0.00,meteohub,2013-05-30 05:27:00,
2013-05-29 22:32:00,59.0,44.8,29.79,South,169,3.0,11.0,59,0.00,,,0.00,meteohub,2013-05-30 05:32:00,
2013-05-29 22:37:00,58.8,44.6,29.78,WSW,248,0.0,8.0,59,0.00,,,0.00,meteohub,2013-05-30 05:37:00,
2013-05-29 22:42:00,58.6,44.8,29.78,East,89,0.0,8.0,60,0.00,,,0.00,meteohub,2013-05-30 05:42:00,
2013-05-29 22:52:00,58.5,44.6,29.79,West,280,1.0,5.0,60,0.00,,,0.00,meteohub,2013-05-30 05:52:00,
2013-05-29 22:57:00,58.5,44.6,29.79,NNW,338,0.0,4.0,60,0.00,,,0.00,meteohub,2013-05-30 05:57:00,
2013-05-29 23:02:00,58.3,45.0,29.79,WNW,285,3.0,3.0,61,0.00,,,0.00,meteohub,2013-05-30 06:02:00,
2013-05-29 23:07:00,57.9,44.6,29.79,WNW,298,2.0,3.0,61,0.00,,,0.00,meteohub,2013-05-30 06:07:00,
2013-05-29 23:12:00,57.9,44.6,29.79,SSE,153,1.0,4.0,61,0.00,,,0.00,meteohub,2013-05-30 06:12:00,
2013-05-29 23:17:00,58.3,45.0,29.79,ESE,119,5.0,7.0,61,0.00,,,0.00,meteohub,2013-05-30 06:17:00,
2013-05-29 23:22:00,58.6,44.8,29.79,South,187,2.0,7.0,60,0.00,,,0.00,meteohub,2013-05-30 06:22:00,
2013-05-29 23:27:00,58.6,44.8,29.79,South,170,0.0,7.0,60,0.00,,,0.00,meteohub,2013-05-30 06:27:00,
2013-05-29 23:32:00,58.3,44.1,29.80,WNW,300,2.0,5.0,59,0.00,,,0.00,meteohub,2013-05-30 06:32:00,
2013-05-29 23:37:00,57.7,44.4,29.80,WNW,300,0.0,4.0,61,0.00,,,0.00,meteohub,2013-05-30 06:37:00,
2013-05-29 23:42:00,57.2,44.2,29.80,NNE,17,2.0,2.0,62,0.00,,,0.00,meteohub,2013-05-30 06:42:00,
2013-05-29 23:47:00,56.7,44.6,29.81,West,259,1.0,2.0,64,0.00,,,0.00,meteohub,2013-05-30 06:47:00,
2013-05-29 23:52:00,56.1,44.6,29.80,WSW,257,0.0,2.0,65,0.00,,,0.00,meteohub,2013-05-30 06:52:00,
2013-05-29 23:57:00,55.8,44.6,29.80,West,268,0.0,2.0,66,0.00,,,0.00,meteohub,2013-05-30 06:57:00,